createdAt,value
2022-08-16T00:01:24.359Z,99.90
2022-08-16T00:03:52.807Z,99.90
2022-08-16T00:06:20.384Z,99.90
2022-08-16T00:08:48.358Z,99.90
2022-08-16T00:11:16.698Z,99.90
2022-08-16T00:13:53.573Z,99.90
2022-08-16T00:17:01.436Z,99.90
2022-08-16T00:19:25.042Z,99.90
2022-08-16T00:22:01.500Z,99.90
2022-08-16T00:24:31.342Z,99.90
2022-08-16T00:27:02.302Z,99.90
2022-08-16T00:29:29.740Z,99.90
2022-08-16T00:31:59.792Z,99.90
2022-08-16T00:34:41.262Z,99.90
2022-08-16T00:37:17.369Z,99.90
2022-08-16T00:39:47.772Z,99.90
2022-08-16T00:42:29.651Z,99.90
2022-08-16T00:45:00.955Z,99.90
2022-08-16T00:47:34.087Z,99.90
2022-08-16T00:50:01.028Z,99.90
2022-08-16T00:52:29.939Z,99.90
2022-08-16T00:54:59.448Z,99.90
2022-08-16T00:57:59.003Z,99.90
2022-08-16T01:00:19.967Z,99.90
2022-08-16T01:02:51.662Z,99.90
2022-08-16T01:05:19.534Z,99.90
2022-08-16T01:07:53.162Z,99.90
2022-08-16T01:10:31.542Z,99.90
2022-08-16T01:13:15.909Z,99.90
2022-08-16T01:16:10.959Z,99.90
2022-08-16T01:19:15.668Z,99.90
2022-08-16T01:22:47.036Z,99.90
2022-08-16T01:24:57.585Z,99.90
2022-08-16T01:27:31.379Z,99.90
2022-08-16T01:30:19.604Z,99.90
2022-08-16T01:33:02.674Z,99.90
2022-08-16T01:36:01.028Z,99.90
2022-08-16T01:38:32.930Z,99.90
2022-08-16T01:41:10.803Z,99.90
2022-08-16T01:43:40.136Z,99.90
2022-08-16T01:46:39.363Z,99.90
2022-08-16T01:49:22.338Z,99.90
2022-08-16T01:52:29.438Z,99.90
2022-08-16T01:54:58.403Z,99.90
2022-08-16T01:57:28.435Z,99.90
2022-08-16T01:59:59.443Z,99.90
2022-08-16T02:02:28.822Z,99.90
2022-08-16T02:04:58.013Z,99.90
2022-08-16T02:07:25.591Z,99.90
2022-08-16T02:09:57.052Z,99.90
2022-08-16T02:12:40.190Z,99.90
2022-08-16T02:15:16.344Z,99.90
2022-08-16T02:17:43.611Z,99.90
2022-08-16T02:20:12.190Z,99.90
2022-08-16T02:22:40.072Z,99.90
2022-08-16T02:25:14.674Z,99.90
2022-08-16T02:27:47.974Z,99.90
2022-08-16T02:30:36.976Z,99.90
2022-08-16T02:33:11.969Z,99.90
2022-08-16T02:35:54.455Z,99.90
2022-08-16T02:38:26.954Z,99.90
2022-08-16T02:40:54.939Z,99.90
2022-08-16T02:43:27.360Z,99.90
2022-08-16T02:45:56.377Z,99.90
2022-08-16T02:48:29.751Z,99.90
2022-08-16T02:51:06.359Z,99.90
2022-08-16T02:53:43.154Z,99.90
2022-08-16T02:56:16.011Z,99.90
2022-08-16T02:58:45.331Z,99.90
2022-08-16T03:01:25.114Z,99.90
2022-08-16T03:04:39.406Z,99.90
2022-08-16T03:06:51.200Z,99.90
2022-08-16T03:09:25.207Z,99.90
2022-08-16T03:11:55.963Z,99.90
2022-08-16T03:14:24.579Z,99.90
2022-08-16T03:17:00.255Z,99.90
2022-08-16T03:19:48.232Z,99.90
2022-08-16T03:22:29.108Z,99.90
2022-08-16T03:25:01.321Z,99.90
2022-08-16T03:27:31.556Z,99.90
2022-08-16T03:30:24.163Z,99.90
2022-08-16T03:32:52.158Z,99.90
2022-08-16T03:35:33.078Z,99.90
2022-08-16T03:38:32.686Z,99.90
2022-08-16T03:40:56.282Z,99.90
2022-08-16T03:43:51.778Z,99.90
2022-08-16T03:46:47.729Z,99.90
2022-08-16T03:49:02.868Z,99.90
2022-08-16T03:51:30.019Z,99.90
2022-08-16T03:54:01.400Z,99.90
2022-08-16T03:56:30.432Z,99.90
2022-08-16T03:58:58.107Z,99.90
2022-08-16T04:01:29.126Z,99.90
2022-08-16T04:03:56.454Z,99.90
2022-08-16T04:06:23.473Z,99.90
2022-08-16T04:08:50.598Z,99.90
2022-08-16T04:11:17.845Z,99.90
2022-08-16T04:14:01.277Z,99.90
2022-08-16T04:16:33.811Z,99.90
2022-08-16T04:19:04.340Z,99.90
2022-08-16T04:21:45.761Z,99.90
2022-08-16T04:24:14.453Z,99.90
2022-08-16T04:26:46.563Z,99.90
2022-08-16T04:29:23.297Z,99.90
2022-08-16T04:31:56.659Z,99.90
2022-08-16T04:34:27.805Z,99.90
2022-08-16T04:36:56.731Z,99.90
2022-08-16T04:39:46.052Z,99.90
2022-08-16T04:42:12.617Z,99.90
2022-08-16T04:44:54.590Z,99.90
2022-08-16T04:47:33.471Z,99.90
2022-08-16T04:50:17.994Z,99.90
2022-08-16T04:52:47.391Z,99.90
2022-08-16T04:55:19.954Z,99.90
2022-08-16T04:57:53.500Z,99.90
2022-08-16T05:00:34.025Z,99.90
2022-08-16T05:03:09.049Z,99.90
2022-08-16T05:05:44.740Z,99.90
2022-08-16T05:08:27.943Z,99.90
2022-08-16T05:11:00.617Z,99.90
2022-08-16T05:13:40.262Z,99.90
2022-08-16T05:16:20.388Z,99.90
2022-08-16T05:18:56.784Z,99.90
2022-08-16T05:21:27.071Z,99.90
2022-08-16T05:23:58.739Z,99.90
2022-08-16T05:26:30.810Z,99.90
2022-08-16T05:29:00.199Z,99.90
2022-08-16T05:31:30.982Z,99.90
2022-08-16T05:34:03.212Z,99.90
2022-08-16T05:36:34.131Z,99.90
2022-08-16T05:39:09.564Z,99.90
2022-08-16T05:41:45.641Z,99.90
2022-08-16T05:44:24.028Z,99.90
2022-08-16T05:46:54.987Z,99.90
2022-08-16T05:49:24.519Z,99.90
2022-08-16T05:51:54.807Z,99.90
2022-08-16T05:54:25.157Z,99.90
2022-08-16T05:56:55.818Z,99.90
2022-08-16T05:59:23.400Z,99.90
2022-08-16T06:01:52.026Z,99.90
2022-08-16T06:04:34.966Z,99.90
2022-08-16T06:07:08.878Z,99.90
2022-08-16T06:09:43.292Z,99.90
2022-08-16T06:12:27.571Z,99.90
2022-08-16T06:15:07.615Z,99.90
2022-08-16T06:17:41.700Z,99.90
2022-08-16T06:20:23.566Z,99.90
2022-08-16T06:22:57.426Z,99.90
2022-08-16T06:25:35.905Z,99.90
2022-08-16T06:28:08.363Z,99.90
2022-08-16T06:30:44.050Z,99.90
2022-08-16T06:33:19.613Z,99.90
2022-08-16T06:35:47.172Z,99.90
2022-08-16T06:38:33.908Z,99.90
2022-08-16T06:41:05.766Z,99.90
2022-08-16T06:43:33.991Z,99.90
2022-08-16T06:46:03.616Z,99.90
2022-08-16T06:48:32.538Z,99.90
2022-08-16T06:51:09.805Z,99.90
2022-08-16T06:53:37.043Z,99.90
2022-08-16T06:56:14.805Z,99.90
2022-08-16T06:58:52.548Z,99.90
2022-08-16T07:01:45.142Z,99.90
2022-08-16T07:04:10.462Z,99.90
2022-08-16T07:06:43.605Z,99.90
2022-08-16T07:09:13.673Z,99.90
2022-08-16T07:11:48.312Z,99.90
2022-08-16T07:14:24.064Z,99.90
2022-08-16T07:16:57.892Z,99.90
2022-08-16T07:19:33.725Z,99.90
2022-08-16T07:22:38.316Z,99.90
2022-08-16T07:25:03.199Z,99.90
2022-08-16T07:27:33.738Z,99.90
2022-08-16T07:30:01.379Z,99.90
2022-08-16T07:32:29.574Z,99.90
2022-08-16T07:34:58.810Z,99.90
2022-08-16T07:37:25.667Z,99.90
2022-08-16T07:39:54.664Z,99.90
2022-08-16T07:42:28.658Z,99.90
2022-08-16T07:45:07.538Z,99.90
2022-08-16T07:47:37.899Z,99.90
2022-08-16T07:50:07.841Z,99.90
2022-08-16T07:52:38.677Z,99.90
2022-08-16T07:55:07.274Z,99.90
2022-08-16T07:57:44.311Z,99.90
2022-08-16T08:00:20.446Z,99.90
2022-08-16T08:02:53.594Z,99.90
2022-08-16T08:05:29.705Z,99.90
2022-08-16T08:08:11.761Z,99.90
2022-08-16T08:10:51.165Z,99.90
2022-08-16T08:13:18.451Z,99.90
2022-08-16T08:15:52.520Z,99.90
2022-08-16T08:18:30.257Z,99.90
2022-08-16T08:20:59.416Z,99.90
2022-08-16T08:23:27.635Z,99.90
2022-08-16T08:25:55.819Z,99.90
2022-08-16T08:28:22.904Z,99.90
2022-08-16T08:31:01.643Z,99.90
2022-08-16T08:33:31.487Z,99.90
2022-08-16T08:36:00.936Z,99.90
2022-08-16T08:38:43.831Z,99.90
2022-08-16T08:41:15.458Z,99.90
2022-08-16T08:43:47.011Z,99.90
2022-08-16T08:46:22.018Z,99.90
2022-08-16T08:48:59.666Z,99.90
2022-08-16T08:51:31.767Z,99.90
2022-08-16T08:53:59.350Z,99.90
2022-08-16T08:56:26.347Z,99.90
2022-08-16T08:58:59.169Z,99.90
2022-08-16T09:01:36.420Z,99.90
2022-08-16T09:04:05.969Z,99.90
2022-08-16T09:06:36.612Z,99.90
2022-08-16T09:09:16.969Z,99.90
2022-08-16T09:11:49.562Z,99.90
2022-08-16T09:14:24.634Z,99.90
2022-08-16T09:17:01.003Z,99.90
2022-08-16T09:19:34.240Z,99.90
2022-08-16T09:22:01.789Z,99.90
2022-08-16T09:24:51.380Z,99.90
2022-08-16T09:27:15.376Z,99.90
2022-08-16T09:29:44.862Z,99.90
2022-08-16T09:32:12.750Z,99.90
2022-08-16T09:34:58.758Z,99.90
2022-08-16T09:37:29.359Z,99.90
2022-08-16T09:39:59.662Z,99.90
2022-08-16T09:42:28.777Z,99.90
2022-08-16T09:45:11.272Z,99.90
2022-08-16T09:47:57.249Z,99.90
2022-08-16T09:50:33.225Z,99.90
2022-08-16T09:53:15.440Z,99.90
2022-08-16T09:55:50.356Z,99.90
2022-08-16T09:58:40.617Z,99.90
2022-08-16T10:01:11.550Z,99.90
2022-08-16T10:03:39.080Z,99.90
2022-08-16T10:06:25.913Z,99.90
2022-08-16T11:09:43.200Z,99.90
2022-08-16T11:15:55.782Z,99.90
2022-08-16T11:18:48.017Z,99.90
2022-08-16T11:21:29.294Z,99.90
2022-08-16T11:23:59.145Z,99.90
2022-08-16T11:26:26.857Z,99.90
2022-08-16T11:31:45.938Z,99.90
2022-08-16T11:34:21.010Z,99.90
2022-08-16T11:36:53.929Z,99.90
2022-08-16T11:39:29.610Z,99.90
2022-08-16T11:41:57.841Z,99.90
2022-08-16T11:44:45.377Z,99.90
2022-08-16T11:47:12.407Z,99.90
2022-08-16T11:49:39.350Z,99.90
2022-08-16T11:52:07.424Z,99.90
2022-08-16T11:54:36.751Z,99.90
2022-08-16T11:57:09.275Z,99.90
2022-08-16T11:59:39.770Z,99.90
2022-08-16T12:02:32.535Z,99.90
2022-08-16T12:04:55.205Z,99.90
2022-08-16T12:07:23.571Z,99.90
2022-08-16T12:09:53.198Z,99.90
2022-08-16T12:12:23.726Z,99.90
2022-08-16T12:14:59.363Z,99.90
2022-08-16T12:17:31.611Z,99.90
2022-08-16T12:20:00.636Z,99.90
2022-08-16T12:22:28.176Z,99.90
2022-08-16T12:24:54.989Z,99.90
2022-08-16T12:27:24.828Z,99.90
2022-08-16T12:29:52.811Z,99.90
2022-08-16T12:32:35.664Z,99.90
2022-08-16T12:35:08.508Z,99.90
2022-08-16T12:37:35.642Z,99.90
2022-08-16T12:40:02.996Z,99.90
2022-08-16T12:42:35.711Z,99.90
2022-08-16T12:45:04.656Z,99.90
2022-08-16T12:47:50.101Z,99.90
2022-08-16T12:50:18.537Z,99.90
2022-08-16T12:52:53.334Z,99.90
2022-08-16T12:55:22.063Z,99.90
2022-08-16T12:57:58.632Z,99.90
2022-08-16T13:00:32.940Z,99.50
2022-08-16T13:03:01.501Z,99.10
2022-08-16T13:05:29.229Z,98.50
2022-08-16T13:07:58.355Z,98.40
2022-08-16T13:10:38.064Z,98.70
2022-08-16T13:13:08.827Z,99.00
2022-08-16T13:15:51.577Z,99.30
2022-08-16T13:18:33.553Z,99.60
2022-08-16T13:21:01.213Z,99.80
2022-08-16T13:23:29.664Z,99.90
2022-08-16T13:25:57.411Z,99.60
2022-08-16T13:28:24.510Z,99.80
2022-08-16T13:30:53.720Z,99.70
2022-08-16T13:33:30.189Z,99.30
2022-08-16T13:35:59.266Z,99.60
2022-08-16T13:38:30.190Z,99.00
2022-08-16T13:41:02.574Z,98.80
2022-08-16T13:43:32.602Z,98.70
2022-08-16T13:46:03.009Z,98.30
2022-08-16T13:48:37.032Z,97.80
2022-08-16T13:51:15.638Z,97.80
2022-08-16T13:53:42.751Z,97.60
2022-08-16T13:56:10.458Z,97.30
2022-08-16T13:58:54.866Z,96.80
2022-08-16T14:01:22.217Z,96.50
2022-08-16T14:03:50.415Z,95.60
2022-08-16T14:06:21.829Z,96.00
2022-08-16T14:08:50.256Z,95.80
2022-08-16T14:11:26.574Z,95.90
2022-08-16T14:13:56.133Z,95.30
2022-08-16T14:16:33.527Z,94.80
2022-08-16T14:19:01.124Z,94.90
2022-08-16T14:21:35.309Z,94.70
2022-08-16T14:24:12.795Z,94.90
2022-08-16T14:26:49.527Z,95.10
2022-08-16T14:31:49.500Z,95.70
2022-08-16T14:34:16.598Z,95.90
2022-08-16T14:36:43.822Z,95.00
2022-08-16T14:39:10.609Z,95.40
2022-08-16T14:41:39.609Z,94.90
2022-08-16T14:44:07.707Z,94.90
2022-08-16T14:46:36.224Z,94.90
2022-08-16T14:49:03.296Z,95.30
2022-08-16T14:51:30.213Z,95.20
2022-08-16T14:53:59.631Z,95.30
2022-08-16T14:56:38.448Z,93.50
2022-08-16T14:59:09.294Z,93.30
2022-08-16T15:01:59.453Z,93.10
2022-08-16T15:04:37.930Z,93.00
2022-08-16T15:07:11.311Z,93.30
2022-08-16T15:10:01.166Z,92.90
2022-08-16T15:12:34.224Z,93.00
2022-08-16T15:15:12.287Z,92.80
2022-08-16T15:17:41.873Z,92.60
2022-08-16T15:20:21.196Z,92.20
2022-08-16T15:22:49.997Z,92.00
2022-08-16T15:25:30.847Z,91.60
2022-08-16T15:28:02.406Z,91.40
2022-08-16T15:30:57.907Z,91.70
2022-08-16T15:33:24.633Z,91.70
2022-08-16T15:35:52.893Z,92.10
2022-08-16T15:38:57.528Z,91.40
2022-08-16T15:41:27.535Z,91.40
2022-08-16T15:44:05.544Z,91.50
2022-08-16T15:46:56.906Z,91.60
2022-08-16T15:49:37.388Z,91.70
2022-08-16T15:52:36.111Z,91.50
2022-08-16T15:55:24.129Z,91.40
2022-08-16T15:57:57.301Z,91.20
2022-08-16T16:00:26.524Z,91.10
2022-08-16T16:03:21.854Z,91.10
2022-08-16T16:05:53.141Z,91.10
2022-08-16T16:08:23.934Z,91.20
2022-08-16T16:10:54.720Z,91.30
2022-08-16T16:13:22.592Z,91.30
2022-08-16T16:15:55.091Z,91.60
2022-08-16T16:18:25.918Z,91.40
2022-08-16T16:20:55.385Z,91.00
2022-08-16T16:23:25.462Z,90.60
2022-08-16T16:25:54.847Z,90.60
2022-08-16T16:29:06.165Z,90.80
2022-08-16T16:31:14.461Z,90.80
2022-08-16T16:33:44.457Z,91.10
2022-08-16T16:36:14.697Z,91.00
2022-08-16T16:38:45.289Z,91.00
2022-08-16T16:41:12.586Z,91.10
2022-08-16T16:43:41.933Z,90.80
2022-08-16T16:46:40.339Z,90.90
2022-08-16T16:48:57.024Z,90.90
2022-08-16T16:51:24.528Z,91.00
2022-08-16T16:53:56.577Z,91.10
2022-08-16T16:56:27.532Z,91.20
2022-08-16T16:59:01.726Z,91.20
2022-08-16T17:01:57.478Z,90.60
2022-08-16T17:04:32.407Z,90.20
2022-08-16T17:07:01.769Z,90.20
2022-08-16T17:09:29.510Z,91.30
2022-08-16T17:11:57.033Z,92.90
2022-08-16T17:14:33.019Z,94.20
2022-08-16T17:17:08.926Z,94.40
2022-08-16T17:19:40.240Z,94.70
2022-08-16T17:22:16.978Z,95.00
2022-08-16T17:24:52.670Z,95.30
2022-08-16T17:27:33.019Z,95.50
2022-08-16T17:30:15.071Z,95.70
2022-08-16T17:32:48.688Z,95.90
2022-08-16T17:35:20.113Z,96.20
2022-08-16T17:37:51.065Z,96.50
2022-08-16T17:40:30.226Z,96.50
2022-08-16T17:43:10.576Z,96.70
2022-08-16T17:45:39.237Z,96.80
2022-08-16T17:48:06.743Z,97.00
2022-08-16T17:50:33.515Z,97.30
2022-08-16T17:53:01.012Z,97.60
2022-08-16T17:55:32.892Z,97.90
2022-08-16T17:57:59.973Z,98.20
2022-08-16T18:00:27.795Z,98.50
2022-08-16T18:02:58.472Z,98.90
2022-08-16T18:05:26.864Z,99.20
2022-08-16T18:07:54.305Z,99.50
2022-08-16T18:10:33.269Z,99.50
2022-08-16T18:13:03.707Z,99.40
2022-08-16T18:15:31.007Z,99.60
2022-08-16T18:17:57.846Z,99.50
2022-08-16T18:20:43.713Z,99.40
2022-08-16T18:23:14.953Z,99.60
2022-08-16T18:25:43.842Z,99.90
2022-08-16T18:28:11.359Z,99.70
2022-08-16T18:30:38.620Z,99.60
2022-08-16T18:33:05.599Z,99.60
2022-08-16T18:35:32.569Z,99.60
2022-08-16T18:37:59.419Z,99.70
2022-08-16T18:40:26.442Z,99.70
2022-08-16T18:43:08.546Z,99.80
2022-08-16T18:45:37.119Z,99.70
2022-08-16T18:48:05.035Z,99.70
2022-08-16T18:50:58.729Z,99.80
2022-08-16T18:53:20.378Z,99.70
2022-08-16T18:55:47.842Z,99.80
2022-08-16T18:58:16.141Z,99.90
2022-08-16T19:00:55.872Z,99.90
2022-08-16T19:03:27.386Z,99.90
2022-08-16T19:06:02.785Z,99.90
2022-08-16T19:08:29.974Z,99.90
2022-08-16T19:10:56.798Z,99.90
2022-08-16T19:13:28.292Z,99.90
2022-08-16T19:15:57.083Z,99.90
2022-08-16T19:18:24.455Z,99.90
2022-08-16T19:20:51.891Z,99.90
2022-08-16T19:23:20.890Z,99.90
2022-08-16T19:25:53.131Z,99.90
2022-08-16T19:28:50.016Z,99.90
2022-08-16T19:31:19.714Z,99.90
2022-08-16T19:33:54.092Z,99.90
2022-08-16T19:36:32.041Z,99.90
2022-08-16T19:39:10.135Z,99.90
2022-08-16T19:41:39.013Z,99.90
2022-08-16T19:44:05.970Z,99.90
2022-08-16T19:46:33.067Z,99.90
2022-08-16T19:49:00.101Z,99.90
2022-08-16T19:51:27.388Z,99.90
2022-08-16T19:53:54.315Z,99.90
2022-08-16T19:56:23.182Z,99.90
2022-08-16T19:59:16.356Z,99.90
2022-08-16T20:01:41.999Z,99.90
2022-08-16T20:04:12.135Z,99.90
2022-08-16T20:06:39.864Z,99.90
2022-08-16T20:09:07.194Z,99.90
2022-08-16T20:11:34.877Z,99.90
2022-08-16T20:14:02.577Z,99.90
2022-08-16T20:16:29.660Z,99.90
2022-08-16T20:18:56.581Z,99.90
2022-08-16T20:21:24.274Z,99.90
2022-08-16T20:23:51.308Z,99.90
2022-08-16T20:26:18.897Z,99.90
2022-08-16T20:28:52.713Z,99.90
2022-08-16T20:31:23.727Z,99.90
2022-08-16T20:33:51.504Z,99.90
2022-08-16T20:36:18.335Z,99.90
2022-08-16T20:38:47.147Z,99.90
2022-08-16T20:41:14.940Z,99.90
2022-08-16T20:43:41.968Z,99.90
2022-08-16T20:46:08.906Z,99.90
2022-08-16T20:48:35.676Z,99.90
2022-08-16T20:51:02.481Z,99.90
2022-08-16T20:53:29.287Z,99.90
2022-08-16T20:55:56.689Z,99.90
2022-08-16T20:58:23.518Z,99.90
2022-08-16T21:00:50.678Z,99.90
2022-08-16T21:03:17.652Z,99.90
2022-08-16T21:05:45.337Z,99.90
2022-08-16T21:08:50.884Z,99.90
2022-08-16T21:11:02.319Z,99.90
2022-08-16T21:13:30.857Z,99.90
2022-08-16T21:15:58.609Z,99.90
2022-08-16T21:18:25.567Z,99.90
2022-08-16T21:20:53.519Z,99.90
2022-08-16T21:23:20.574Z,99.90
2022-08-16T21:25:58.857Z,99.90
2022-08-16T21:28:41.688Z,99.90
2022-08-16T21:31:11.127Z,99.90
2022-08-16T21:33:38.251Z,99.90
2022-08-16T21:36:05.311Z,99.90
2022-08-16T21:38:32.209Z,99.90
2022-08-16T21:40:59.796Z,99.90
2022-08-16T21:43:28.812Z,99.90
2022-08-16T21:45:55.937Z,99.90
2022-08-16T21:48:33.804Z,99.90
2022-08-16T21:51:07.146Z,99.90
2022-08-16T21:53:34.318Z,99.90
2022-08-16T21:56:01.691Z,99.90
2022-08-16T21:58:29.278Z,99.90
2022-08-16T22:00:56.391Z,99.90
2022-08-16T22:03:23.488Z,99.90
2022-08-16T22:06:05.875Z,99.90
2022-08-16T22:08:44.183Z,99.90
2022-08-16T22:11:22.989Z,99.90
2022-08-16T22:13:58.007Z,99.90
2022-08-16T22:16:31.907Z,99.90
2022-08-16T22:18:59.372Z,99.90
2022-08-16T22:21:26.300Z,99.90
2022-08-16T22:23:57.267Z,99.90
2022-08-16T22:26:31.895Z,99.90
2022-08-16T22:29:05.527Z,99.90
2022-08-16T22:31:32.962Z,99.90
2022-08-16T22:34:01.813Z,99.90
2022-08-16T22:36:30.059Z,99.90
2022-08-16T22:38:58.725Z,99.90
2022-08-16T22:41:27.704Z,99.90
2022-08-16T22:43:54.708Z,99.90
2022-08-16T22:46:21.556Z,99.90
2022-08-16T22:48:50.286Z,99.90
2022-08-16T22:51:21.578Z,99.90
2022-08-16T22:53:48.496Z,99.90
2022-08-16T22:56:17.858Z,99.90
2022-08-16T22:58:45.419Z,99.90
2022-08-16T23:01:12.787Z,99.90
2022-08-16T23:03:40.458Z,99.90
2022-08-16T23:06:08.591Z,99.90
2022-08-16T23:08:40.583Z,99.90
2022-08-16T23:11:26.236Z,99.90
2022-08-16T23:13:56.217Z,99.90
2022-08-16T23:16:32.333Z,99.90
2022-08-16T23:19:12.237Z,99.90
2022-08-16T23:21:41.279Z,99.90
2022-08-16T23:24:08.632Z,99.90
2022-08-16T23:26:45.560Z,99.90
2022-08-16T23:29:23.900Z,99.90
2022-08-16T23:31:58.169Z,99.90
2022-08-16T23:34:26.724Z,99.90
2022-08-16T23:36:53.668Z,99.90
2022-08-16T23:39:20.856Z,99.90
2022-08-16T23:41:47.706Z,99.90
2022-08-16T23:44:55.403Z,99.90
2022-08-16T23:47:01.551Z,99.90
2022-08-16T23:49:57.594Z,99.90
2022-08-16T23:52:15.128Z,99.90
2022-08-16T23:54:41.997Z,99.90
2022-08-16T23:57:08.903Z,99.90
2022-08-16T23:59:52.195Z,99.90
